Time;durP1;ratioP1;P1;durP2;ratioP2;P2;SDS_P1;SDS_P2;PMS_P1;PMS_P2;Temp;Humidity;BMP_temperature;BMP_pressure;BME280_temperature;BME280_humidity;BME280_pressure;Samples;Min_cycle;Max_cycle;Signal;HPM_P1;HPM_P2
2022/09/24 00:00:58;;;;;;;25.30;19.02;;;;;;;14.40;55.36;101401.25;7389186;19;19998;-59
2022/09/24 00:03:25;;;;;;;25.75;18.60;;;;;;;14.39;55.31;101396.91;7389549;19;20003;-59
2022/09/24 00:05:51;;;;;;;25.95;18.45;;;;;;;14.43;55.06;101390.34;7391523;19;20006;-59
2022/09/24 00:08:18;;;;;;;27.52;19.30;;;;;;;14.47;55.22;101400.63;7386147;19;20003;-59
2022/09/24 00:10:47;;;;;;;29.42;19.38;;;;;;;14.36;55.41;101398.41;7388376;19;20003;-59
2022/09/24 00:13:16;;;;;;;25.42;19.23;;;;;;;14.38;55.25;101393.38;7391074;19;19998;-59
2022/09/24 00:15:45;;;;;;;30.52;19.60;;;;;;;14.43;55.17;101387.59;7388138;19;19995;-58
2022/09/24 00:18:12;;;;;;;27.63;20.52;;;;;;;14.30;55.46;101388.84;7389310;19;20002;-58
2022/09/24 00:20:39;;;;;;;27.75;19.98;;;;;;;14.35;55.40;101383.09;7388296;19;20094;-58
2022/09/24 00:23:07;;;;;;;28.80;19.98;;;;;;;14.37;55.37;101382.72;7390062;19;20003;-58
2022/09/24 00:28:16;;;;;;;31.85;21.63;;;;;;;14.34;55.56;101383.44;7389257;19;20005;-59
2022/09/24 00:30:43;;;;;;;29.48;21.85;;;;;;;14.32;55.54;101378.28;7390710;19;19998;-58
2022/09/24 00:33:10;;;;;;;28.20;22.08;;;;;;;14.35;55.49;101380.34;7389730;19;20034;-59
2022/09/24 00:35:42;;;;;;;28.92;20.58;;;;;;;14.37;55.39;101377.25;7388982;19;19994;-59
2022/09/24 00:38:08;;;;;;;29.02;20.58;;;;;;;14.30;55.72;101371.56;7389203;19;20032;-58
2022/09/24 00:40:36;;;;;;;31.92;22.75;;;;;;;14.25;55.93;101372.63;7389531;19;20455;-58
2022/09/24 00:43:20;;;;;;;28.35;21.38;;;;;;;14.19;55.78;101377.56;7390711;19;20062;-59
2022/09/24 00:45:46;;;;;;;;;;;;;;;14.23;56.22;101369.44;7388871;19;20011;-58
2022/09/24 00:48:11;;;;;;;30.50;22.30;;;;;;;14.25;55.71;101372.63;7388811;19;20015;-58
2022/09/24 00:50:37;;;;;;;30.15;22.08;;;;;;;14.31;55.31;101373.16;7389105;19;20491;-58
2022/09/24 00:53:08;;;;;;;32.22;22.67;;;;;;;14.31;55.58;101371.22;7390839;19;20005;-58
2022/09/24 00:55:36;;;;;;;28.83;21.40;;;;;;;14.36;55.04;101364.66;7389206;19;20086;-58
2022/09/24 00:58:06;;;;;;;31.60;23.00;;;;;;;14.33;55.42;101365.34;7388830;19;20420;-59
2022/09/24 01:00:32;;;;;;;38.15;24.90;;;;;;;14.36;55.31;101364.66;7386863;19;20007;-58
2022/09/24 01:03:08;;;;;;;33.50;24.95;;;;;;;14.32;55.35;101361.81;7390028;19;20038;-58
2022/09/24 01:05:37;;;;;;;37.10;24.88;;;;;;;14.29;55.30;101362.50;7387330;19;20007;-58
2022/09/24 01:08:03;;;;;;;33.40;24.75;;;;;;;14.26;55.63;101365.97;7386660;19;20156;-59
2022/09/24 01:10:54;;;;;;;31.27;22.60;;;;;;;14.22;56.13;101359.59;7395512;19;20006;-58
2022/09/24 01:13:39;;;;;;;33.97;24.17;;;;;;;14.25;55.85;101358.91;7395254;19;20011;-58
2022/09/24 01:16:14;;;;;;;32.28;22.83;;;;;;;14.25;55.85;101359.69;7394636;19;20002;-59
2022/09/24 01:18:45;;;;;;;31.55;23.35;;;;;;;14.25;55.83;101353.41;7396274;19;19995;-59
2022/09/24 01:21:22;;;;;;;35.55;24.23;;;;;;;14.27;55.81;101356.59;7394598;19;20010;-58
2022/09/24 01:24:10;;;;;;;32.08;23.65;;;;;;;14.24;56.01;101355.38;7396977;19;19995;-58
2022/09/24 01:26:48;;;;;;;31.88;22.58;;;;;;;14.29;55.87;101348.00;7391457;19;19998;-58
2022/09/24 01:29:52;;;;;;;33.80;24.13;;;;;;;14.29;55.87;101343.28;7394512;19;20012;-58
2022/09/24 01:32:23;;;;;;;32.72;23.35;;;;;;;14.11;56.18;101353.03;7394096;19;20032;-58
2022/09/24 01:34:58;;;;;;;28.90;21.13;;;;;;;14.16;56.11;101344.53;7394570;19;20023;-58
2022/09/24 01:37:27;;;;;;;31.35;22.77;;;;;;;14.24;55.61;101340.81;7393648;19;20015;-58
2022/09/24 01:39:55;;;;;;;29.50;21.63;;;;;;;14.20;55.64;101356.41;7393958;19;20467;-59
2022/09/24 01:42:24;;;;;;;28.92;20.42;;;;;;;14.19;55.57;101339.13;7393569;19;20002;-58
2022/09/24 01:44:50;;;;;;;26.67;19.52;;;;;;;14.13;55.83;101342.47;7394655;19;20490;-58
2022/09/24 01:47:25;;;;;;;27.75;19.75;;;;;;;14.19;55.60;101339.13;7395001;19;20006;-59
2022/09/24 01:49:52;;;;;;;32.22;22.38;;;;;;;14.10;55.89;101341.25;7393665;19;19999;-58
2022/09/24 01:52:22;;;;;;;30.38;21.00;;;;;;;13.98;56.43;101342.13;7394500;19;19998;-58
2022/09/24 01:54:51;;;;;;;28.83;20.35;;;;;;;14.03;56.21;101336.38;7392671;19;20073;-59
2022/09/24 01:57:24;;;;;;;29.13;20.27;;;;;;;14.18;55.67;101342.25;7393810;19;20462;-59
2022/09/24 02:00:08;;;;;;;28.77;20.60;;;;;;;14.20;55.70;101335.25;7395582;19;20078;-59
2022/09/24 02:02:37;;;;;;;34.17;21.30;;;;;;;14.18;55.60;101323.03;7393704;19;20022;-59
2022/09/24 02:05:22;;;;;;;35.08;24.77;;;;;;;14.03;55.90;101319.91;7396412;19;19999;-59
2022/09/24 02:07:58;;;;;;;33.38;23.65;;;;;;;14.05;55.83;101320.34;7392187;19;20941;-58
2022/09/24 02:10:24;;;;;;;33.67;23.35;;;;;;;14.18;55.67;101323.03;7394965;19;20054;-58
2022/09/24 02:12:57;;;;;;;32.22;22.00;;;;;;;14.14;55.61;101320.16;7394345;19;19999;-58
2022/09/24 02:15:36;;;;;;;31.92;22.30;;;;;;;14.11;55.45;101322.81;7391102;19;20007;-58
2022/09/24 02:18:07;;;;;;;30.48;20.63;;;;;;;14.15;55.18;101319.03;7391967;19;20032;-58
2022/09/24 02:20:34;;;;;;;31.23;21.33;;;;;;;14.17;55.11;101316.72;7391924;19;20011;-58
2022/09/24 02:23:02;;;;;;;31.77;21.10;;;;;;;14.14;55.40;101311.16;7392967;19;20002;-59
2022/09/24 02:25:33;;;;;;;34.20;22.33;;;;;;;14.10;55.27;101319.28;7392717;19;20027;-58
2022/09/24 02:27:59;;;;;;;30.40;19.35;;;;;;;14.13;55.00;101317.78;7393317;19;20002;-58
2022/09/24 02:30:32;;;;;;;28.13;19.80;;;;;;;14.07;55.23;101320.78;7392998;19;20035;-58
2022/09/24 02:32:58;;;;;;;25.63;19.00;;;;;;;14.03;55.35;101316.38;7394288;19;20024;-58
2022/09/24 02:35:24;;;;;;;26.10;17.90;;;;;;;14.02;55.33;101315.56;7392359;19;20003;-58
2022/09/24 02:37:49;;;;;;;25.20;16.73;;;;;;;14.01;55.15;101305.75;7393073;19;20007;-58
2022/09/24 02:40:15;;;;;;;27.30;17.52;;;;;;;14.03;55.07;101308.94;7394456;19;20416;-58
2022/09/24 02:42:42;;;;;;;27.15;18.67;;;;;;;14.13;54.89;101307.63;7393742;19;20005;-58
2022/09/24 02:45:09;;;;;;;28.95;18.25;;;;;;;14.14;55.21;101308.41;7392983;19;20002;-58
2022/09/24 02:47:34;;;;;;;26.50;17.75;;;;;;;14.12;55.04;101305.22;7392584;19;20013;-59
2022/09/24 02:50:00;;;;;;;25.13;17.98;;;;;;;14.16;54.99;101300.59;7391745;19;20399;-59
2022/09/24 02:52:26;;;;;;;23.08;16.02;;;;;;;14.10;54.96;101299.28;7393516;19;20005;-58
2022/09/24 02:54:51;;;;;;;23.58;16.35;;;;;;;14.08;55.10;101296.91;7392898;19;20019;-58
2022/09/24 02:57:17;;;;;;;25.35;17.42;;;;;;;14.05;55.15;101297.59;7389931;19;20011;-58
2022/09/24 02:59:44;;;;;;;26.58;18.55;;;;;;;14.12;55.05;101292.28;7392310;19;19994;-59
2022/09/24 03:02:10;;;;;;;26.05;17.38;;;;;;;14.07;54.83;101285.09;7390057;19;20013;-58
2022/09/24 03:04:35;;;;;;;27.13;17.83;;;;;;;14.00;55.05;101286.88;7392395;19;20463;-58
2022/09/24 03:07:01;;;;;;;28.35;17.88;;;;;;;14.01;54.84;101288.47;7389892;19;20112;-58
2022/09/24 03:09:27;;;;;;;22.40;16.58;;;;;;;14.10;54.64;101280.09;7392985;19;20454;-58
2022/09/24 03:11:52;;;;;;;24.85;16.30;;;;;;;14.15;54.83;101282.56;7391310;19;20027;-58
2022/09/24 03:14:18;;;;;;;26.17;16.70;;;;;;;14.11;54.97;101281.66;7390185;19;20051;-58
2022/09/24 03:16:44;;;;;;;24.75;16.23;;;;;;;14.04;54.89;101285.84;7392507;19;20058;-58
2022/09/24 03:19:09;;;;;;;21.48;15.75;;;;;;;14.06;54.87;101291.75;7392699;19;19995;-59
2022/09/24 03:21:35;;;;;;;19.42;13.77;;;;;;;14.02;54.83;101285.38;7392121;19;19997;-59
2022/09/24 03:24:02;;;;;;;22.35;14.38;;;;;;;14.01;54.99;101283.78;7392155;19;19991;-58
2022/09/24 03:26:28;;;;;;;19.73;13.68;;;;;;;14.09;54.58;101283.97;7389385;19;20010;-59
2022/09/24 03:28:54;;;;;;;21.98;14.07;;;;;;;14.18;54.28;101277.16;7390349;19;19999;-59
2022/09/24 03:31:22;;;;;;;21.55;14.02;;;;;;;14.16;54.37;101284.13;7392024;19;19995;-59
2022/09/24 03:33:48;;;;;;;20.60;13.32;;;;;;;14.11;54.13;101279.72;7391843;19;20474;-59
2022/09/24 03:50:29;;;;;;;18.92;13.57;;;;;;;13.98;54.87;101268.03;7422378;19;20338;-56
2022/09/24 03:53:54;;;;;;;20.60;14.77;;;;;;;13.81;55.05;101268.31;6926951;19;9751792;-56
2022/09/24 03:56:19;;;;;;;20.02;14.18;;;;;;;13.93;54.77;101259.25;7430839;19;20027;-55
2022/09/24 03:58:46;;;;;;;24.73;14.98;;;;;;;13.98;54.68;101259.78;7425357;19;19998;-56
2022/09/24 04:01:14;;;;;;;20.02;14.60;;;;;;;13.82;54.81;101264.44;7426915;19;20003;-57
2022/09/24 04:03:40;;;;;;;21.23;14.23;;;;;;;13.96;54.35;101264.84;7427445;19;20107;-55
2022/09/24 04:06:06;;;;;;;24.50;15.35;;;;;;;13.90;54.50;101260.75;7427522;19;20002;-56
2022/09/24 04:08:32;;;;;;;21.88;15.35;;;;;;;13.87;54.61;101261.47;7424958;19;20002;-56
2022/09/24 04:10:58;;;;;;;22.00;14.07;;;;;;;13.90;54.59;101260.75;7427072;19;19995;-56
2022/09/24 04:13:23;;;;;;;20.83;14.88;;;;;;;13.84;54.86;101254.75;7424789;19;20475;-56
2022/09/24 04:15:50;;;;;;;22.98;15.60;;;;;;;13.89;54.50;101256.41;7426141;19;19999;-55
2022/09/24 04:18:15;;;;;;;21.00;14.35;;;;;;;13.95;54.63;101259.72;7424577;19;20429;-56
2022/09/24 04:20:41;;;;;;;21.90;14.65;;;;;;;13.88;54.80;101254.84;7427487;19;19995;-56
2022/09/24 04:23:07;;;;;;;19.92;14.00;;;;;;;13.94;54.60;101256.16;7426837;19;20010;-56
2022/09/24 04:25:33;;;;;;;22.77;15.05;;;;;;;13.97;54.42;101255.44;7426671;19;20506;-56
2022/09/24 04:28:01;;;;;;;22.42;14.55;;;;;;;13.95;54.47;101249.53;7397645;19;20362;-56
2022/09/24 04:30:28;;;;;;;21.65;15.27;;;;;;;13.90;54.59;101249.78;7424227;19;20000;-55
2022/09/24 04:32:53;;;;;;;22.08;15.70;;;;;;;13.77;55.06;101256.47;7422008;19;20007;-56
2022/09/24 04:35:21;;;;;;;24.83;17.10;;;;;;;13.84;54.72;101245.69;7425996;19;20005;-56
2022/09/24 04:37:47;;;;;;;22.83;16.05;;;;;;;13.94;54.47;101245.16;7424170;19;20077;-56
2022/09/24 04:40:15;;;;;;;22.50;16.35;;;;;;;13.94;54.54;101238.91;7423413;19;20378;-56
2022/09/24 04:42:41;;;;;;;23.85;15.88;;;;;;;13.89;54.62;101245.44;7426365;19;20486;-56
2022/09/24 04:45:09;;;;;;;28.98;17.67;;;;;;;13.77;54.96;101248.25;7424764;19;20455;-57
2022/09/24 04:47:35;;;;;;;25.92;17.73;;;;;;;13.73;55.09;101247.34;7425605;19;19994;-57
2022/09/24 04:50:02;;;;;;;22.13;15.27;;;;;;;13.84;54.77;101246.53;7425971;19;19995;-56
2022/09/24 04:52:32;;;;;;;24.90;16.25;;;;;;;13.92;54.66;101239.25;7423197;19;20391;-56
2022/09/24 04:55:00;;;;;;;28.60;17.25;;;;;;;13.86;54.60;101237.91;7426974;19;20021;-57
2022/09/24 04:57:27;;;;;;;28.20;17.92;;;;;;;13.88;54.46;101235.63;7424839;19;19998;-57
2022/09/24 04:59:53;;;;;;;30.05;18.55;;;;;;;13.77;54.98;101240.00;7425051;19;20003;-56
2022/09/24 05:02:19;;;;;;;26.48;18.42;;;;;;;13.85;54.70;101241.81;7424197;19;20461;-56
2022/09/24 05:04:44;;;;;;;30.25;19.08;;;;;;;13.72;54.99;101243.00;7400198;19;20002;-57
2022/09/24 05:07:10;;;;;;;29.90;19.25;;;;;;;13.86;54.69;101244.22;7394908;19;19999;-59
2022/09/24 05:09:36;;;;;;;29.38;20.48;;;;;;;13.95;54.45;101246.78;7395165;19;20430;-57
2022/09/24 05:12:02;;;;;;;30.13;19.10;;;;;;;13.95;54.69;101246.78;7395710;19;20002;-57
2022/09/24 05:14:28;;;;;;;28.63;19.42;;;;;;;13.91;54.51;101250.56;7396684;19;19995;-56
2022/09/24 05:16:53;;;;;;;30.85;20.30;;;;;;;13.93;54.60;101245.53;7395368;19;20038;-59
2022/09/24 05:19:19;;;;;;;30.20;20.02;;;;;;;13.92;54.45;101252.19;7393913;19;20466;-56
2022/09/24 05:21:45;;;;;;;31.90;21.15;;;;;;;13.97;54.29;101243.69;7394131;19;20481;-57
2022/09/24 05:24:11;;;;;;;32.30;21.25;;;;;;;13.99;54.37;101244.91;7395512;19;20103;-58
2022/09/24 05:29:20;;;;;;;33.05;22.02;;;;;;;13.73;54.95;101250.91;7393687;19;20003;-56
2022/09/24 05:31:46;;;;;;;35.78;23.20;;;;;;;13.90;54.61;101249.00;7395164;19;20006;-57
2022/09/24 05:34:13;;;;;;;30.95;22.77;;;;;;;13.89;54.68;101248.19;7395298;19;20005;-58
2022/09/24 05:36:41;;;;;;;32.85;22.98;;;;;;;13.89;54.69;101245.44;7393267;19;20010;-57
2022/09/24 05:39:07;;;;;;;33.47;23.35;;;;;;;13.92;54.49;101243.94;7393986;19;20034;-57
2022/09/24 05:41:33;;;;;;;34.28;24.10;;;;;;;13.91;54.53;101262.38;7394955;19;20062;-58
2022/09/24 05:43:58;;;;;;;36.95;24.60;;;;;;;13.94;54.65;101249.88;7395151;19;20058;-57
2022/09/24 05:46:24;;;;;;;34.80;24.35;;;;;;;13.87;54.62;101250.50;7393227;19;20471;-57
2022/09/24 05:48:50;;;;;;;39.35;25.80;;;;;;;13.87;54.83;101254.03;7394015;19;20010;-57
2022/09/24 05:51:15;;;;;;;37.83;24.83;;;;;;;13.90;54.59;101249.00;7394887;19;20002;-57
2022/09/24 05:53:42;;;;;;;35.38;24.77;;;;;;;13.91;54.47;101245.91;7391651;19;19999;-59
2022/09/24 05:56:09;;;;;;;39.90;26.30;;;;;;;13.95;54.76;101246.78;7398192;19;20010;-57
2022/09/24 05:58:34;;;;;;;36.78;25.50;;;;;;;13.94;54.40;101253.41;7390951;19;19999;-57
2022/09/24 06:01:02;;;;;;;41.53;25.33;;;;;;;13.96;54.47;101245.63;7394398;19;20001;-57
2022/09/24 06:03:30;;;;;;;44.67;27.55;;;;;;;13.93;54.71;101254.56;7393149;19;19998;-58
2022/09/24 06:06:02;;;;;;;39.55;26.40;;;;;;;13.93;54.41;101257.31;7395626;19;20026;-58
2022/09/24 06:08:30;;;;;;;37.58;26.08;;;;;;;13.93;54.51;101248.25;7393243;19;19999;-58
2022/09/24 06:11:01;;;;;;;39.45;26.65;;;;;;;13.98;54.59;101257.06;7394324;19;20005;-58
2022/09/24 06:13:27;;;;;;;38.35;26.35;;;;;;;14.00;54.22;101260.22;7391848;19;20003;-58
2022/09/24 06:16:03;;;;;;;38.60;25.33;;;;;;;14.03;54.42;101261.47;7392466;19;20001;-57
2022/09/24 06:18:28;;;;;;;39.28;26.92;;;;;;;14.05;54.20;101251.72;7393138;19;20002;-58
2022/09/24 06:20:54;;;;;;;40.00;26.92;;;;;;;14.06;54.27;101258.81;7394244;19;20002;-58
2022/09/24 06:23:20;;;;;;;39.15;27.30;;;;;;;14.06;54.18;101258.00;7393572;19;20056;-57
2022/09/24 06:25:50;;;;;;;36.67;24.90;;;;;;;14.10;54.06;101258.91;7394180;19;20083;-57
2022/09/24 06:28:24;;;;;;;39.22;24.70;;;;;;;14.11;54.13;101255.03;7391513;19;20003;-58
2022/09/24 06:30:50;;;;;;;37.92;25.52;;;;;;;14.13;54.21;101258.22;7393539;19;20450;-56
2022/09/24 06:33:16;;;;;;;39.50;25.88;;;;;;;14.11;54.23;101255.03;7390888;19;20012;-58
2022/09/24 06:35:43;;;;;;;35.42;25.17;;;;;;;14.15;54.05;101255.09;7393339;19;19998;-58
2022/09/24 06:38:14;;;;;;;40.53;27.08;;;;;;;14.05;54.54;101257.22;7392302;19;20003;-56
2022/09/24 06:40:40;;;;;;;42.13;27.33;;;;;;;13.82;55.17;101259.75;7393907;19;20074;-58
2022/09/24 06:43:08;;;;;;;40.97;27.63;;;;;;;13.92;54.76;101263.94;7393128;19;19998;-58
2022/09/24 06:45:34;;;;;;;43.13;26.70;;;;;;;14.06;54.42;101269.81;7392898;19;20006;-57
2022/09/24 06:48:01;;;;;;;43.08;28.65;;;;;;;14.19;54.28;101272.44;7392514;19;20010;-57
2022/09/24 06:50:30;;;;;;;42.78;27.40;;;;;;;14.19;54.27;101272.44;7390840;19;20454;-58
2022/09/24 06:52:57;;;;;;;40.80;27.42;;;;;;;14.22;54.39;101269.78;7392147;19;20105;-58
2022/09/24 06:55:23;;;;;;;38.97;26.92;;;;;;;14.30;54.06;101265.28;7393250;19;20006;-58
2022/09/24 06:57:48;;;;;;;41.65;29.20;;;;;;;14.33;54.12;101272.81;7392684;19;20012;-58
2022/09/24 07:00:14;;;;;;;40.45;25.75;;;;;;;14.33;54.19;101261.81;7391471;19;19998;-57
2022/09/24 07:02:40;;;;;;;43.38;28.65;;;;;;;14.32;54.17;101273.94;7393085;19;20005;-58
2022/09/24 07:05:07;;;;;;;39.03;26.83;;;;;;;14.34;54.33;101274.38;7392495;19;20003;-58
2022/09/24 07:07:33;;;;;;;40.38;27.10;;;;;;;14.39;54.10;101270.56;7391125;19;20002;-58
2022/09/24 07:10:04;;;;;;;44.28;27.90;;;;;;;14.41;54.12;101276.50;7391261;19;20005;-58
2022/09/24 07:12:32;;;;;;;44.65;28.63;;;;;;;14.41;54.34;101273.75;7391050;19;20009;-58
2022/09/24 07:14:59;;;;;;;47.30;29.33;;;;;;;14.37;54.24;101276.41;7392674;19;19998;-58
2022/09/24 07:17:25;;;;;;;43.50;28.92;;;;;;;14.36;54.36;101280.34;7389959;19;20006;-58
2022/09/24 07:19:51;;;;;;;46.92;31.17;;;;;;;14.34;54.45;101281.84;7392466;19;19998;-58
2022/09/24 07:22:17;;;;;;;44.83;31.08;;;;;;;14.38;54.59;101275.28;7390186;19;19994;-57
2022/09/24 07:24:43;;;;;;;46.40;30.13;;;;;;;14.37;54.53;101281.91;7392271;19;19998;-58
2022/09/24 07:27:09;;;;;;;46.75;31.60;;;;;;;14.41;54.40;101280.06;7391087;19;19998;-58
2022/09/24 07:29:35;;;;;;;52.67;33.13;;;;;;;14.39;54.84;101279.59;7390772;19;20001;-59
2022/09/24 07:32:02;;;;;;;48.22;30.83;;;;;;;14.38;54.65;101283.53;7391325;19;19999;-57
2022/09/24 07:34:27;;;;;;;48.63;29.42;;;;;;;14.27;54.76;101285.19;7390045;19;19999;-57
2022/09/24 07:36:54;;;;;;;46.05;32.10;;;;;;;14.31;54.55;101288.03;7390653;19;19997;-59
2022/09/24 07:39:24;;;;;;;46.00;31.17;;;;;;;14.42;54.47;101289.88;7388385;19;20022;-58
2022/09/24 07:41:51;;;;;;;47.58;30.58;;;;;;;14.45;54.55;101282.91;7392221;19;20030;-58
2022/09/24 07:44:21;;;;;;;45.50;30.67;;;;;;;14.42;54.61;101286.34;7390222;19;20006;-58
2022/09/24 07:46:51;;;;;;;47.85;30.33;;;;;;;14.35;54.69;101284.22;7390601;19;19998;-58
2022/09/24 07:49:16;;;;;;;47.90;31.33;;;;;;;14.41;54.80;101288.31;7389444;19;19995;-58
2022/09/24 07:51:42;;;;;;;45.08;29.65;;;;;;;14.42;54.62;101275.38;7390883;19;20002;-58
2022/09/24 07:54:08;;;;;;;47.53;31.08;;;;;;;14.46;54.75;101280.94;7388747;19;20490;-58
2022/09/24 07:56:35;;;;;;;48.67;31.35;;;;;;;14.48;54.57;101292.34;7393992;19;20494;-58
2022/09/24 07:59:00;;;;;;;44.67;31.05;;;;;;;14.53;54.70;101292.09;7389067;19;20002;-57
2022/09/24 08:01:26;;;;;;;45.88;31.13;;;;;;;14.52;54.67;101293.25;7390500;19;20018;-58
2022/09/24 08:03:59;;;;;;;45.42;29.77;;;;;;;14.64;54.58;101304.13;7389124;19;20453;-57
2022/09/24 08:06:24;;;;;;;50.30;32.40;;;;;;;14.71;54.45;101290.56;7389602;19;20028;-58
2022/09/24 08:08:51;;;;;;;45.85;29.73;;;;;;;14.71;54.82;101298.00;7388217;19;20462;-60
2022/09/24 08:11:18;;;;;;;47.70;31.50;;;;;;;14.73;54.80;101296.50;7390383;19;20031;-58
2022/09/24 08:13:45;;;;;;;48.42;32.15;;;;;;;14.80;54.39;101296.69;7389113;19;20026;-58
2022/09/24 08:16:11;;;;;;;48.83;32.92;;;;;;;14.76;54.65;101306.00;7390342;19;20002;-58
2022/09/24 08:18:38;;;;;;;50.55;32.58;;;;;;;14.79;54.58;101299.78;7388219;19;20029;-58
2022/09/24 08:21:06;;;;;;;50.45;32.80;;;;;;;14.85;54.38;101303.06;7390292;19;20079;-58
2022/09/24 08:23:35;;;;;;;50.08;31.95;;;;;;;14.76;54.94;101295.81;7390546;19;20006;-58
2022/09/24 08:26:01;;;;;;;44.08;28.75;;;;;;;14.83;54.56;101297.09;7389973;19;19997;-59
2022/09/24 08:28:27;;;;;;;50.97;33.20;;;;;;;14.78;54.78;101299.00;7387433;19;20005;-58
2022/09/24 08:31:12;;;;;;;49.47;30.58;;;;;;;14.67;55.02;101292.41;7391022;19;20002;-58
2022/09/24 08:33:38;;;;;;;46.28;30.70;;;;;;;14.78;54.95;101304.50;7386998;19;20034;-58
2022/09/24 08:36:06;;;;;;;47.90;31.85;;;;;;;14.88;54.87;101300.41;7390474;19;20030;-57
2022/09/24 08:38:32;;;;;;;48.28;31.45;;;;;;;14.88;54.75;101297.66;7388541;19;20078;-59
2022/09/24 08:41:26;;;;;;;46.78;32.35;;;;;;;14.98;54.66;101307.28;7397051;19;19999;-58
2022/09/24 08:44:02;;;;;;;52.22;33.17;;;;;;;14.96;55.04;101304.91;7396374;19;20587;-58
2022/09/24 08:49:25;;;;;;;54.85;34.28;;;;;;;15.06;54.84;101297.22;7394808;19;20066;-57
2022/09/24 08:52:13;;;;;;;49.73;31.73;;;;;;;15.10;54.66;101293.41;7395935;19;19998;-58
2022/09/24 08:54:41;;;;;;;49.75;32.17;;;;;;;15.02;55.04;101299.91;7395477;19;20011;-59
2022/09/24 08:57:13;;;;;;;50.22;32.45;;;;;;;15.01;55.23;101300.25;7396779;19;19999;-59
2022/09/24 08:59:43;;;;;;;54.28;33.85;;;;;;;15.07;55.07;101307.84;7393966;19;20016;-58
2022/09/24 09:02:27;;;;;;;47.83;31.17;;;;;;;15.17;54.89;101292.75;7397419;19;19998;-58
2022/09/24 09:05:27;;;;;;;47.72;32.38;;;;;;;15.31;54.97;101306.00;7394323;19;20466;-58
2022/09/24 09:08:07;;;;;;;49.13;31.83;;;;;;;15.22;55.14;101308.19;7393879;19;20009;-58
2022/09/24 09:10:38;;;;;;;47.67;30.00;;;;;;;15.14;55.20;101310.75;7394310;19;20006;-59
2022/09/24 09:13:09;;;;;;;46.92;29.13;;;;;;;15.29;54.99;101302.81;7395007;19;20106;-58
2022/09/24 09:15:41;;;;;;;42.17;28.50;;;;;;;15.39;54.69;101306.94;7395928;19;20010;-59
2022/09/24 09:18:40;;;;;;;45.58;31.13;;;;;;;15.40;55.17;101311.25;7394557;19;20078;-59
2022/09/24 09:21:32;;;;;;;44.45;30.38;;;;;;;15.41;54.87;101305.41;7394255;19;20006;-58
2022/09/24 09:24:01;;;;;;;44.47;28.92;;;;;;;15.45;54.71;101309.03;7396925;19;19998;-58
2022/09/24 09:26:26;;;;;;;43.85;29.40;;;;;;;15.46;54.62;101307.88;7395459;19;20006;-58
2022/09/24 09:28:57;;;;;;;43.10;29.00;;;;;;;15.42;55.17;101309.75;7394352;19;20323;-58
2022/09/24 09:31:34;;;;;;;45.33;29.50;;;;;;;15.39;55.15;101304.97;7395766;19;20118;-58
2022/09/24 09:34:37;;;;;;;43.85;27.05;;;;;;;15.36;55.47;101306.53;7396789;19;20009;-58
2022/09/24 09:37:19;;;;;;;44.22;28.52;;;;;;;15.35;55.53;101304.91;7395597;19;20341;-58
2022/09/24 09:39:54;;;;;;;42.38;27.45;;;;;;;15.38;55.11;101308.91;7392414;19;20030;-59
2022/09/24 09:42:33;;;;;;;42.38;28.15;;;;;;;15.40;55.19;101303.84;7395713;19;20006;-59
2022/09/24 09:45:01;;;;;;;42.30;28.20;;;;;;;15.41;55.08;101308.16;7393104;19;20466;-59
2022/09/24 09:47:39;;;;;;;39.63;25.40;;;;;;;15.42;55.12;101304.25;7394247;19;19999;-60
2022/09/24 09:50:25;;;;;;;39.97;27.92;;;;;;;15.49;54.79;101309.91;7395259;19;19998;-58
2022/09/24 09:52:51;;;;;;;40.67;25.98;;;;;;;15.33;55.12;101296.22;7392859;19;19999;-57
2022/09/24 09:55:22;;;;;;;40.83;25.75;;;;;;;15.40;55.03;101301.09;7396139;19;20022;-57
2022/09/24 09:57:50;;;;;;;40.88;26.60;;;;;;;15.40;55.39;101301.09;7391753;19;20006;-58
2022/09/24 10:00:31;;;;;;;39.15;25.75;;;;;;;15.33;55.59;101298.97;7392322;19;20438;-58
2022/09/24 10:02:57;;;;;;;43.45;27.15;;;;;;;15.33;55.66;101298.16;7395369;19;20078;-58
2022/09/24 10:05:27;;;;;;;40.40;26.63;;;;;;;15.32;55.82;101302.09;7394384;19;20028;-57
2022/09/24 10:07:56;;;;;;;41.00;28.15;;;;;;;15.24;55.69;101297.59;7391957;19;20010;-58
2022/09/24 10:10:23;;;;;;;42.03;27.55;;;;;;;15.09;56.38;101300.03;7392223;19;20006;-58
2022/09/24 10:13:04;;;;;;;37.95;25.45;;;;;;;15.15;56.07;101301.34;7394066;19;20027;-57
2022/09/24 10:15:30;;;;;;;41.03;27.23;;;;;;;15.17;55.78;101299.03;7393679;19;20017;-58
2022/09/24 10:17:58;;;;;;;41.42;27.30;;;;;;;15.21;55.72;101303.81;7391826;19;20447;-59
2022/09/24 10:20:32;;;;;;;45.03;28.85;;;;;;;15.24;55.78;101303.09;7394357;19;20003;-58
2022/09/24 10:23:12;;;;;;;41.42;27.20;;;;;;;15.24;55.96;101297.59;7392281;19;20159;-57
2022/09/24 10:25:37;;;;;;;40.15;26.25;;;;;;;15.31;55.83;101298.56;7393929;19;19998;-57
2022/09/24 10:31:02;;;;;;;43.58;27.58;;;;;;;15.48;55.29;101300.06;7393685;19;20003;-58
2022/09/24 10:33:38;;;;;;;36.28;24.63;;;;;;;15.63;55.26;101303.09;7391664;19;20312;-63
2022/09/24 10:36:25;;;;;;;40.22;27.63;;;;;;;15.68;55.02;101297.31;7392229;19;20025;-59
2022/09/24 10:39:08;;;;;;;38.88;25.85;;;;;;;15.66;55.28;101299.63;7391206;19;19995;-59
2022/09/24 10:41:34;;;;;;;42.22;26.75;;;;;;;15.72;55.14;101300.94;7393223;19;20021;-59
2022/09/24 10:44:10;;;;;;;40.47;26.05;;;;;;;15.67;55.29;101298.47;7393394;19;20045;-59
2022/09/24 10:47:10;;;;;;;39.95;26.27;;;;;;;15.74;55.34;101293.09;7392445;19;20406;-57
2022/09/24 10:49:48;;;;;;;38.90;27.08;;;;;;;15.76;55.10;101292.75;7389985;19;19991;-60
2022/09/24 10:52:41;;;;;;;40.33;27.80;;;;;;;15.69;55.42;101298.91;7391788;19;20007;-57
2022/09/24 10:55:16;;;;;;;40.65;26.13;;;;;;;15.82;54.88;101299.53;7392969;19;20010;-57
2022/09/24 10:58:03;;;;;;;38.55;25.52;;;;;;;15.63;55.85;101297.59;7390239;19;20030;-58
2022/09/24 11:01:02;;;;;;;39.85;26.45;;;;;;;15.67;55.75;101309.50;7393634;19;20066;-57
2022/09/24 11:03:43;;;;;;;39.20;26.50;;;;;;;15.75;55.10;101296.63;7392190;19;20007;-58
2022/09/24 11:06:24;;;;;;;38.55;26.35;;;;;;;15.92;54.93;101298.94;7392363;19;20009;-59
2022/09/24 11:09:22;;;;;;;38.05;25.77;;;;;;;16.05;54.96;101292.09;7389181;19;20006;-59
2022/09/24 11:12:06;;;;;;;41.90;27.80;;;;;;;15.98;55.07;101293.91;7391070;19;20524;-58
2022/09/24 11:15:19;;;;;;;36.55;24.30;;;;;;;15.87;55.32;101291.78;7390562;19;20007;-58
2022/09/24 11:18:06;;;;;;;41.72;25.92;;;;;;;15.83;55.33;101296.44;7389978;19;20022;-58
2022/09/24 11:20:45;;;;;;;39.58;25.83;;;;;;;15.72;55.71;101300.94;7392970;19;20010;-59
2022/09/24 11:23:32;;;;;;;39.33;25.45;;;;;;;15.78;55.23;101291.22;7391915;19;20011;-59
2022/09/24 11:26:31;;;;;;;44.72;27.25;;;;;;;15.89;55.44;101297.69;7392125;19;20014;-59
2022/09/24 11:29:32;;;;;;;36.95;25.65;;;;;;;16.01;55.06;101290.44;7390798;19;20058;-62
2022/09/24 11:32:28;;;;;;;37.85;26.15;;;;;;;15.99;55.09;101292.75;7387570;19;20764;-60
2022/09/24 11:35:19;;;;;;;39.70;24.27;;;;;;;15.89;55.10;101291.41;7391453;19;20091;-58
2022/09/24 11:38:06;;;;;;;35.05;23.33;;;;;;;15.78;55.42;101296.72;7391024;19;20038;-58
2022/09/24 11:40:51;;;;;;;34.58;22.75;;;;;;;15.82;55.29;101294.03;7391839;19;20002;-57
2022/09/24 11:43:35;;;;;;;31.90;22.15;;;;;;;15.72;55.33;101290.72;7389066;19;20005;-58
2022/09/24 11:46:22;;;;;;;32.95;21.88;;;;;;;15.74;54.97;101304.13;7391426;19;20006;-57
2022/09/24 11:48:50;;;;;;;32.85;21.88;;;;;;;15.75;55.12;101293.88;7390075;19;20107;-61
2022/09/24 11:51:41;;;;;;;30.10;20.48;;;;;;;15.70;55.25;101293.03;7391020;19;20338;-57
2022/09/24 11:54:18;;;;;;;31.45;22.10;;;;;;;15.68;55.18;101305.56;7389402;19;20009;-58